N313QZ KBTL-KBTR
Flight info
| Callsign | N313QZ |
|---|---|
| Flight time | 3h 6m |
| Altitude | 26000 |
| Route | UNBAR WWODD PXV/N0316F280 Q31 TIIDE SPKER IZAAC FIRNO |
| Aircraft | STAR/L-SCDFGHRWY/LB1 |
Departure
| Time | 2026-05-07 17:29 |
|---|---|
| Airport | Battle Creek Executive Airport at Kellogg Field (KBTL) |
Arrival
| Time | 2026-05-07 20:36 |
|---|---|
| Airport | Baton Rouge Metropolitan Airport (KBTR) |
| Time | Latitude | Longitude | Altitude | Speed | Heading |
|---|---|---|---|---|---|
| 2026-05-07 17:12 | 42.30136 | -85.25593 | 946 ft | 0 kts | 311° |
| 2026-05-07 17:26 | 42.30177 | -85.25565 | 946 ft | 18 kts | 45° |
| 2026-05-07 17:26 | 42.30314 | -85.25467 | 946 ft | 31 kts | 46° |
| 2026-05-07 17:27 | 42.30489 | -85.25246 | 944 ft | 24 kts | 41° |
| 2026-05-07 17:27 | 42.30574 | -85.25133 | 942 ft | 10 kts | 47° |
| 2026-05-07 17:27 | 42.30590 | -85.25113 | 942 ft | 0 kts | 44° |
| 2026-05-07 17:28 | 42.30642 | -85.25050 | 942 ft | 21 kts | 40° |
| 2026-05-07 17:28 | 42.30777 | -85.24889 | 940 ft | 16 kts | 28° |
| 2026-05-07 17:28 | 42.30805 | -85.25043 | 940 ft | 25 kts | 264° |
| 2026-05-07 17:28 | 42.30666 | -85.25242 | 943 ft | 40 kts | 222° |
| 2026-05-07 17:29 | 42.30371 | -85.25622 | 948 ft | 78 kts | 223° |
| 2026-05-07 17:29 | 42.29859 | -85.26224 | 993 ft | 116 kts | 227° |
| 2026-05-07 17:29 | 42.29166 | -85.27000 | 1192 ft | 140 kts | 224° |
| 2026-05-07 17:29 | 42.28372 | -85.27888 | 1645 ft | 157 kts | 224° |
| 2026-05-07 17:30 | 42.27410 | -85.28718 | 2216 ft | 173 kts | 202° |
| 2026-05-07 17:30 | 42.26162 | -85.28659 | 2827 ft | 187 kts | 175° |
| 2026-05-07 17:30 | 42.24888 | -85.28214 | 3460 ft | 195 kts | 168° |
| 2026-05-07 17:30 | 42.23548 | -85.27670 | 4073 ft | 197 kts | 169° |
| 2026-05-07 17:31 | 42.22246 | -85.27241 | 4769 ft | 197 kts | 173° |
| 2026-05-07 17:31 | 42.20905 | -85.26813 | 5527 ft | 198 kts | 172° |
| 2026-05-07 17:31 | 42.19575 | -85.26344 | 6325 ft | 199 kts | 171° |
| 2026-05-07 17:31 | 42.18235 | -85.25877 | 7100 ft | 199 kts | 173° |
| 2026-05-07 17:32 | 42.16884 | -85.25428 | 7843 ft | 200 kts | 173° |
| 2026-05-07 17:32 | 42.15528 | -85.24966 | 8563 ft | 202 kts | 173° |
| 2026-05-07 17:32 | 42.14161 | -85.24492 | 9299 ft | 204 kts | 174° |
| 2026-05-07 17:32 | 42.12774 | -85.24020 | 10010 ft | 206 kts | 174° |
| 2026-05-07 17:33 | 42.11386 | -85.23547 | 10710 ft | 206 kts | 175° |
| 2026-05-07 17:33 | 42.09998 | -85.23071 | 11421 ft | 205 kts | 175° |
| 2026-05-07 17:33 | 42.08615 | -85.22598 | 12139 ft | 204 kts | 175° |
| 2026-05-07 17:33 | 42.07241 | -85.22129 | 12878 ft | 204 kts | 175° |
| 2026-05-07 17:34 | 42.05864 | -85.21659 | 13616 ft | 204 kts | 175° |
| 2026-05-07 17:34 | 42.04938 | -85.21370 | 14095 ft | 199 kts | 182° |
| 2026-05-07 17:34 | 42.03793 | -85.21581 | 14694 ft | 180 kts | 211° |
| 2026-05-07 17:34 | 42.02659 | -85.22218 | 15418 ft | 174 kts | 216° |
| 2026-05-07 17:35 | 42.01575 | -85.22905 | 16155 ft | 171 kts | 217° |
| 2026-05-07 17:35 | 42.00518 | -85.23602 | 16871 ft | 168 kts | 218° |
| 2026-05-07 17:35 | 41.99455 | -85.24259 | 17620 ft | 168 kts | 214° |
| 2026-05-07 17:35 | 41.98365 | -85.24811 | 18339 ft | 167 kts | 213° |
| 2026-05-07 17:36 | 41.97290 | -85.25375 | 18935 ft | 164 kts | 215° |
| 2026-05-07 17:36 | 41.96244 | -85.25960 | 19520 ft | 164 kts | 216° |
| 2026-05-07 17:36 | 41.95187 | -85.26536 | 20114 ft | 162 kts | 216° |
| 2026-05-07 17:36 | 41.94136 | -85.27095 | 20709 ft | 162 kts | 217° |
| 2026-05-07 17:37 | 41.93100 | -85.27654 | 21300 ft | 160 kts | 218° |
| 2026-05-07 17:37 | 41.92062 | -85.28218 | 21903 ft | 159 kts | 218° |
| 2026-05-07 17:37 | 41.91045 | -85.28767 | 22505 ft | 158 kts | 219° |
| 2026-05-07 17:37 | 41.90025 | -85.29316 | 23101 ft | 157 kts | 220° |
| 2026-05-07 17:38 | 41.89014 | -85.29860 | 23673 ft | 156 kts | 220° |
| 2026-05-07 17:38 | 41.88016 | -85.30400 | 24160 ft | 154 kts | 221° |
| 2026-05-07 17:38 | 41.87028 | -85.30932 | 24629 ft | 152 kts | 222° |
| 2026-05-07 17:38 | 41.86052 | -85.31458 | 25107 ft | 150 kts | 223° |
| 2026-05-07 17:39 | 41.85084 | -85.31980 | 25553 ft | 151 kts | 223° |
| 2026-05-07 17:39 | 41.84082 | -85.32538 | 25795 ft | 163 kts | 223° |
| 2026-05-07 17:39 | 41.82969 | -85.33141 | 25909 ft | 182 kts | 220° |
| 2026-05-07 17:39 | 41.81737 | -85.33784 | 25964 ft | 199 kts | 219° |
| 2026-05-07 17:40 | 41.80401 | -85.34498 | 25990 ft | 213 kts | 219° |
| 2026-05-07 17:40 | 41.78984 | -85.35261 | 26001 ft | 225 kts | 218° |
| 2026-05-07 17:40 | 41.77513 | -85.36045 | 26007 ft | 234 kts | 217° |
| 2026-05-07 17:40 | 41.75977 | -85.36870 | 26011 ft | 241 kts | 217° |
| 2026-05-07 17:41 | 41.74402 | -85.37717 | 26013 ft | 247 kts | 217° |
| 2026-05-07 17:41 | 41.72795 | -85.38577 | 26012 ft | 251 kts | 217° |
| 2026-05-07 17:41 | 41.71162 | -85.39454 | 26015 ft | 254 kts | 217° |
| 2026-05-07 17:41 | 41.69513 | -85.40338 | 26016 ft | 257 kts | 217° |
| 2026-05-07 17:42 | 41.67851 | -85.41227 | 26016 ft | 259 kts | 217° |
| 2026-05-07 17:42 | 41.66169 | -85.42128 | 26014 ft | 260 kts | 217° |
| 2026-05-07 17:42 | 41.64485 | -85.43030 | 26010 ft | 262 kts | 217° |
| 2026-05-07 17:42 | 41.62794 | -85.43932 | 26012 ft | 262 kts | 217° |
| 2026-05-07 17:43 | 41.61095 | -85.44841 | 26012 ft | 263 kts | 217° |
| 2026-05-07 17:43 | 41.59396 | -85.45748 | 26014 ft | 263 kts | 217° |
| 2026-05-07 17:43 | 41.57697 | -85.46655 | 26016 ft | 264 kts | 217° |
| 2026-05-07 17:43 | 41.55988 | -85.47566 | 26028 ft | 264 kts | 217° |
| 2026-05-07 17:44 | 41.54284 | -85.48475 | 26027 ft | 264 kts | 217° |
| 2026-05-07 17:44 | 41.52578 | -85.49384 | 26025 ft | 264 kts | 217° |
| 2026-05-07 17:44 | 41.50903 | -85.50274 | 26027 ft | 263 kts | 217° |
| 2026-05-07 17:44 | 41.49205 | -85.51179 | 26024 ft | 263 kts | 217° |
| 2026-05-07 17:45 | 41.47499 | -85.52086 | 26027 ft | 263 kts | 217° |
| 2026-05-07 17:45 | 41.45848 | -85.52962 | 26027 ft | 262 kts | 217° |
| 2026-05-07 17:45 | 41.44154 | -85.53863 | 26028 ft | 262 kts | 217° |
| 2026-05-07 17:45 | 41.42460 | -85.54763 | 26027 ft | 262 kts | 217° |
| 2026-05-07 17:46 | 41.40759 | -85.55665 | 26029 ft | 262 kts | 217° |
| 2026-05-07 17:46 | 41.39068 | -85.56562 | 26027 ft | 262 kts | 217° |
| 2026-05-07 17:46 | 41.37370 | -85.57462 | 26024 ft | 262 kts | 217° |
| 2026-05-07 17:46 | 41.35671 | -85.58361 | 26024 ft | 262 kts | 218° |
| 2026-05-07 17:47 | 41.33978 | -85.59258 | 26024 ft | 262 kts | 218° |
| 2026-05-07 17:47 | 41.32283 | -85.60154 | 26025 ft | 262 kts | 218° |
| 2026-05-07 17:47 | 41.30588 | -85.61051 | 26023 ft | 262 kts | 218° |
| 2026-05-07 17:47 | 41.28903 | -85.61941 | 26023 ft | 262 kts | 218° |
| 2026-05-07 17:48 | 41.27203 | -85.62839 | 26021 ft | 262 kts | 218° |
| 2026-05-07 17:48 | 41.25510 | -85.63733 | 26023 ft | 262 kts | 218° |
| 2026-05-07 17:48 | 41.23816 | -85.64626 | 26022 ft | 262 kts | 218° |
| 2026-05-07 17:48 | 41.22123 | -85.65519 | 26024 ft | 262 kts | 218° |
| 2026-05-07 17:49 | 41.20431 | -85.66411 | 26022 ft | 262 kts | 218° |
| 2026-05-07 17:49 | 41.18766 | -85.67288 | 26023 ft | 261 kts | 218° |
| 2026-05-07 17:49 | 41.17055 | -85.68189 | 26023 ft | 261 kts | 218° |
| 2026-05-07 17:49 | 41.15362 | -85.69080 | 26022 ft | 261 kts | 218° |
| 2026-05-07 17:50 | 41.13679 | -85.69964 | 26023 ft | 261 kts | 218° |
| 2026-05-07 17:50 | 41.12005 | -85.70844 | 26023 ft | 261 kts | 218° |
| 2026-05-07 17:50 | 41.10317 | -85.71731 | 26023 ft | 261 kts | 218° |
| 2026-05-07 17:50 | 41.08628 | -85.72617 | 26022 ft | 261 kts | 218° |
| 2026-05-07 17:51 | 41.06919 | -85.73514 | 26024 ft | 261 kts | 218° |
| 2026-05-07 17:51 | 41.05252 | -85.74388 | 26024 ft | 261 kts | 218° |
| 2026-05-07 17:51 | 41.03569 | -85.75270 | 26024 ft | 261 kts | 218° |
| 2026-05-07 17:51 | 41.01880 | -85.76155 | 26024 ft | 261 kts | 218° |
| 2026-05-07 17:52 | 41.00197 | -85.77036 | 26024 ft | 260 kts | 218° |
| 2026-05-07 17:52 | 40.98511 | -85.77918 | 26027 ft | 260 kts | 218° |
| 2026-05-07 17:52 | 40.96828 | -85.78798 | 26024 ft | 260 kts | 218° |
| 2026-05-07 17:52 | 40.95142 | -85.79679 | 26026 ft | 261 kts | 218° |
| 2026-05-07 17:53 | 40.93455 | -85.80560 | 26028 ft | 261 kts | 218° |
| 2026-05-07 17:53 | 40.91767 | -85.81442 | 26028 ft | 261 kts | 218° |
| 2026-05-07 17:53 | 40.90079 | -85.82323 | 26031 ft | 261 kts | 218° |
| 2026-05-07 17:53 | 40.88390 | -85.83203 | 26026 ft | 261 kts | 218° |
| 2026-05-07 17:54 | 40.86693 | -85.84088 | 26029 ft | 261 kts | 218° |
| 2026-05-07 17:54 | 40.85004 | -85.84968 | 26029 ft | 261 kts | 218° |
| 2026-05-07 17:54 | 40.83311 | -85.85849 | 26029 ft | 262 kts | 218° |
| 2026-05-07 17:54 | 40.81619 | -85.86730 | 26029 ft | 262 kts | 218° |
| 2026-05-07 17:55 | 40.79920 | -85.87613 | 26029 ft | 262 kts | 218° |
| 2026-05-07 17:55 | 40.78223 | -85.88496 | 26030 ft | 262 kts | 218° |
| 2026-05-07 17:55 | 40.76527 | -85.89377 | 26031 ft | 263 kts | 218° |
| 2026-05-07 17:55 | 40.74823 | -85.90261 | 26031 ft | 263 kts | 218° |
| 2026-05-07 17:56 | 40.73119 | -85.91145 | 26033 ft | 263 kts | 218° |
| 2026-05-07 17:56 | 40.71418 | -85.92028 | 26029 ft | 263 kts | 218° |
| 2026-05-07 17:56 | 40.69713 | -85.92911 | 26032 ft | 264 kts | 218° |
| 2026-05-07 17:56 | 40.68006 | -85.93795 | 26032 ft | 264 kts | 218° |
| 2026-05-07 17:57 | 40.66297 | -85.94681 | 26033 ft | 264 kts | 218° |
| 2026-05-07 17:57 | 40.65168 | -85.95265 | 26062 ft | 264 kts | 218° |
| 2026-05-07 17:57 | 40.62898 | -85.96439 | 26065 ft | 264 kts | 218° |
| 2026-05-07 17:57 | 40.61183 | -85.97325 | 26067 ft | 264 kts | 218° |
| 2026-05-07 17:58 | 40.59476 | -85.98208 | 26069 ft | 264 kts | 218° |
| 2026-05-07 17:58 | 40.57761 | -85.99093 | 26068 ft | 265 kts | 218° |
| 2026-05-07 17:58 | 40.56048 | -85.99977 | 26069 ft | 265 kts | 218° |
| 2026-05-07 17:58 | 40.54331 | -86.00863 | 26067 ft | 265 kts | 218° |
| 2026-05-07 17:59 | 40.52611 | -86.01749 | 26069 ft | 265 kts | 218° |
| 2026-05-07 17:59 | 40.51451 | -86.02347 | 26063 ft | 266 kts | 218° |
| 2026-05-07 17:59 | 40.49750 | -86.03223 | 26069 ft | 266 kts | 217° |
| 2026-05-07 17:59 | 40.48004 | -86.04122 | 26062 ft | 266 kts | 217° |
| 2026-05-07 18:00 | 40.46304 | -86.04996 | 26069 ft | 266 kts | 217° |
| 2026-05-07 18:00 | 40.44579 | -86.05883 | 26066 ft | 267 kts | 217° |
| 2026-05-07 18:00 | 40.42823 | -86.06785 | 26068 ft | 267 kts | 217° |
| 2026-05-07 18:00 | 40.41121 | -86.07660 | 26066 ft | 267 kts | 217° |
| 2026-05-07 18:01 | 40.39360 | -86.08564 | 26066 ft | 268 kts | 217° |
| 2026-05-07 18:01 | 40.37651 | -86.09440 | 26060 ft | 268 kts | 217° |
| 2026-05-07 18:01 | 40.35914 | -86.10331 | 26060 ft | 268 kts | 217° |
| 2026-05-07 18:01 | 40.34176 | -86.11222 | 26059 ft | 268 kts | 217° |
| 2026-05-07 18:02 | 40.30700 | -86.13001 | 26055 ft | 268 kts | 217° |
| 2026-05-07 18:02 | 40.28960 | -86.13892 | 26042 ft | 268 kts | 217° |
| 2026-05-07 18:02 | 40.27221 | -86.14781 | 26046 ft | 269 kts | 217° |
| 2026-05-07 18:03 | 40.25479 | -86.15671 | 26053 ft | 269 kts | 217° |
| 2026-05-07 18:03 | 40.23740 | -86.16560 | 26050 ft | 269 kts | 217° |
| 2026-05-07 18:03 | 40.21995 | -86.17450 | 26048 ft | 270 kts | 217° |
| 2026-05-07 18:03 | 40.20244 | -86.18343 | 26048 ft | 270 kts | 217° |
| 2026-05-07 18:04 | 40.18496 | -86.19235 | 26049 ft | 270 kts | 217° |
| 2026-05-07 18:04 | 40.16746 | -86.20126 | 26051 ft | 270 kts | 217° |
| 2026-05-07 18:04 | 40.14991 | -86.21020 | 26049 ft | 270 kts | 217° |
| 2026-05-07 18:04 | 40.13245 | -86.21910 | 26048 ft | 270 kts | 217° |
| 2026-05-07 18:05 | 40.11492 | -86.22801 | 26049 ft | 270 kts | 217° |
| 2026-05-07 18:05 | 40.09739 | -86.23693 | 26047 ft | 271 kts | 217° |
| 2026-05-07 18:05 | 40.07977 | -86.24588 | 26050 ft | 271 kts | 217° |
| 2026-05-07 18:05 | 40.06226 | -86.25477 | 26049 ft | 271 kts | 217° |
| 2026-05-07 18:06 | 40.04464 | -86.26373 | 26049 ft | 271 kts | 217° |
| 2026-05-07 18:06 | 40.02708 | -86.27263 | 26048 ft | 271 kts | 217° |
| 2026-05-07 18:06 | 40.00967 | -86.28146 | 26051 ft | 272 kts | 217° |
| 2026-05-07 18:06 | 39.99212 | -86.29035 | 26053 ft | 272 kts | 217° |
| 2026-05-07 18:07 | 39.97443 | -86.29932 | 26053 ft | 272 kts | 217° |
| 2026-05-07 18:07 | 39.95679 | -86.30825 | 26049 ft | 272 kts | 217° |
| 2026-05-07 18:07 | 39.93913 | -86.31718 | 26052 ft | 272 kts | 217° |
| 2026-05-07 18:07 | 39.92145 | -86.32613 | 26049 ft | 273 kts | 217° |
| 2026-05-07 18:08 | 39.90380 | -86.33504 | 26050 ft | 273 kts | 217° |
| 2026-05-07 18:08 | 39.88607 | -86.34400 | 26048 ft | 273 kts | 217° |
| 2026-05-07 18:08 | 39.86852 | -86.35317 | 26049 ft | 270 kts | 218° |
| 2026-05-07 18:08 | 39.85229 | -86.36426 | 26051 ft | 260 kts | 226° |
| 2026-05-07 18:09 | 39.83693 | -86.37683 | 26050 ft | 261 kts | 225° |
| 2026-05-07 18:09 | 39.82097 | -86.38832 | 26050 ft | 264 kts | 223° |
| 2026-05-07 18:09 | 39.80517 | -86.40013 | 26050 ft | 261 kts | 225° |
| 2026-05-07 18:09 | 39.78945 | -86.41209 | 26050 ft | 263 kts | 224° |
| 2026-05-07 18:10 | 39.77353 | -86.42378 | 26050 ft | 263 kts | 224° |
| 2026-05-07 18:10 | 39.75764 | -86.43571 | 26052 ft | 262 kts | 225° |
| 2026-05-07 18:10 | 39.74182 | -86.44758 | 26050 ft | 263 kts | 224° |
| 2026-05-07 18:10 | 39.72596 | -86.45935 | 26054 ft | 263 kts | 224° |
| 2026-05-07 18:11 | 39.71012 | -86.47119 | 26062 ft | 263 kts | 224° |
| 2026-05-07 18:11 | 39.69416 | -86.48311 | 26053 ft | 263 kts | 224° |
| 2026-05-07 18:11 | 39.67848 | -86.49477 | 26052 ft | 264 kts | 224° |
| 2026-05-07 18:11 | 39.66255 | -86.50666 | 26050 ft | 264 kts | 224° |
| 2026-05-07 18:12 | 39.64660 | -86.51854 | 26055 ft | 265 kts | 224° |
| 2026-05-07 18:12 | 39.63067 | -86.53038 | 26053 ft | 265 kts | 224° |
| 2026-05-07 18:12 | 39.61465 | -86.54231 | 26057 ft | 265 kts | 224° |
| 2026-05-07 18:12 | 39.59864 | -86.55421 | 26056 ft | 265 kts | 224° |
| 2026-05-07 18:13 | 39.58265 | -86.56608 | 26058 ft | 265 kts | 224° |
| 2026-05-07 18:13 | 39.56669 | -86.57796 | 26058 ft | 265 kts | 224° |
| 2026-05-07 18:13 | 39.55069 | -86.58983 | 26061 ft | 265 kts | 224° |
| 2026-05-07 18:13 | 39.53460 | -86.60176 | 26057 ft | 265 kts | 224° |
| 2026-05-07 18:14 | 39.51863 | -86.61361 | 26059 ft | 265 kts | 224° |
| 2026-05-07 18:14 | 39.50260 | -86.62550 | 26060 ft | 266 kts | 224° |
| 2026-05-07 18:14 | 39.48654 | -86.63738 | 26059 ft | 266 kts | 224° |
| 2026-05-07 18:14 | 39.47045 | -86.64930 | 26060 ft | 266 kts | 224° |
| 2026-05-07 18:15 | 39.45437 | -86.66120 | 26060 ft | 266 kts | 224° |
| 2026-05-07 18:15 | 39.43832 | -86.67306 | 26061 ft | 266 kts | 224° |
| 2026-05-07 18:15 | 39.42222 | -86.68497 | 26061 ft | 267 kts | 224° |
| 2026-05-07 18:15 | 39.40609 | -86.69688 | 26059 ft | 267 kts | 224° |
| 2026-05-07 18:16 | 39.38999 | -86.70877 | 26062 ft | 267 kts | 224° |
| 2026-05-07 18:16 | 39.37385 | -86.72069 | 26059 ft | 267 kts | 224° |
| 2026-05-07 18:16 | 39.35771 | -86.73258 | 26059 ft | 267 kts | 224° |
| 2026-05-07 18:16 | 39.34154 | -86.74450 | 26061 ft | 267 kts | 224° |
| 2026-05-07 18:17 | 39.32546 | -86.75636 | 26063 ft | 267 kts | 224° |
| 2026-05-07 18:17 | 39.30929 | -86.76826 | 26062 ft | 267 kts | 224° |
| 2026-05-07 18:17 | 39.29318 | -86.78012 | 26056 ft | 267 kts | 224° |
| 2026-05-07 18:17 | 39.27705 | -86.79198 | 26062 ft | 267 kts | 224° |
| 2026-05-07 18:18 | 39.26090 | -86.80386 | 26057 ft | 268 kts | 224° |
| 2026-05-07 18:18 | 39.24492 | -86.81559 | 26056 ft | 267 kts | 223° |
| 2026-05-07 18:18 | 39.22856 | -86.82761 | 26062 ft | 268 kts | 223° |
| 2026-05-07 18:18 | 39.21233 | -86.83954 | 26059 ft | 268 kts | 223° |
| 2026-05-07 18:19 | 39.19618 | -86.85137 | 26062 ft | 268 kts | 223° |
| 2026-05-07 18:19 | 39.18016 | -86.86312 | 26061 ft | 268 kts | 223° |
| 2026-05-07 18:19 | 39.16401 | -86.87496 | 26060 ft | 268 kts | 223° |
| 2026-05-07 18:19 | 39.14772 | -86.88689 | 26062 ft | 268 kts | 223° |
| 2026-05-07 18:20 | 39.13148 | -86.89878 | 26060 ft | 268 kts | 223° |
| 2026-05-07 18:20 | 39.11525 | -86.91065 | 26061 ft | 269 kts | 223° |
| 2026-05-07 18:20 | 39.09902 | -86.92253 | 26063 ft | 269 kts | 223° |
| 2026-05-07 18:20 | 39.08277 | -86.93440 | 26063 ft | 269 kts | 223° |
| 2026-05-07 18:21 | 39.06651 | -86.94627 | 26064 ft | 269 kts | 223° |
| 2026-05-07 18:21 | 39.05023 | -86.95817 | 26063 ft | 269 kts | 223° |
| 2026-05-07 18:21 | 39.03394 | -86.97005 | 26063 ft | 269 kts | 223° |
| 2026-05-07 18:21 | 39.01770 | -86.98190 | 26062 ft | 269 kts | 223° |
| 2026-05-07 18:22 | 39.00141 | -86.99377 | 26064 ft | 269 kts | 223° |
| 2026-05-07 18:22 | 38.99042 | -87.00177 | 26073 ft | 269 kts | 223° |
| 2026-05-07 18:22 | 38.96884 | -87.01749 | 26073 ft | 269 kts | 223° |
| 2026-05-07 18:22 | 38.95253 | -87.02938 | 26078 ft | 269 kts | 223° |
| 2026-05-07 18:23 | 38.93623 | -87.04122 | 26074 ft | 269 kts | 223° |
| 2026-05-07 18:23 | 38.91994 | -87.05306 | 26073 ft | 269 kts | 223° |
| 2026-05-07 18:23 | 38.90369 | -87.06487 | 26075 ft | 269 kts | 223° |
| 2026-05-07 18:23 | 38.88736 | -87.07673 | 26074 ft | 269 kts | 223° |
| 2026-05-07 18:24 | 38.87106 | -87.08856 | 26075 ft | 269 kts | 223° |
| 2026-05-07 18:24 | 38.85479 | -87.10037 | 26077 ft | 269 kts | 223° |
| 2026-05-07 18:24 | 38.83849 | -87.11219 | 26078 ft | 269 kts | 223° |
| 2026-05-07 18:24 | 38.82217 | -87.12401 | 26078 ft | 269 kts | 223° |
| 2026-05-07 18:25 | 38.80590 | -87.13579 | 26076 ft | 269 kts | 223° |
| 2026-05-07 18:25 | 38.78956 | -87.14762 | 26078 ft | 269 kts | 223° |
| 2026-05-07 18:25 | 38.77329 | -87.15939 | 26077 ft | 269 kts | 223° |
| 2026-05-07 18:25 | 38.75699 | -87.17118 | 26077 ft | 269 kts | 223° |
| 2026-05-07 18:26 | 38.74071 | -87.18295 | 26078 ft | 269 kts | 223° |
| 2026-05-07 18:26 | 38.72438 | -87.19474 | 26078 ft | 269 kts | 223° |
| 2026-05-07 18:26 | 38.70808 | -87.20652 | 26078 ft | 269 kts | 223° |
| 2026-05-07 18:26 | 38.69178 | -87.21828 | 26077 ft | 269 kts | 223° |
| 2026-05-07 18:27 | 38.67551 | -87.23001 | 26080 ft | 269 kts | 223° |
| 2026-05-07 18:27 | 38.65919 | -87.24178 | 26078 ft | 269 kts | 223° |
| 2026-05-07 18:27 | 38.64287 | -87.25353 | 26078 ft | 269 kts | 223° |
| 2026-05-07 18:27 | 38.62678 | -87.26512 | 26080 ft | 269 kts | 223° |
| 2026-05-07 18:28 | 38.61023 | -87.27704 | 26079 ft | 269 kts | 223° |
| 2026-05-07 18:28 | 38.59396 | -87.28873 | 26079 ft | 269 kts | 223° |
| 2026-05-07 18:28 | 38.57784 | -87.30032 | 26079 ft | 269 kts | 223° |
| 2026-05-07 18:28 | 38.56153 | -87.31205 | 26080 ft | 269 kts | 223° |
| 2026-05-07 18:29 | 38.54522 | -87.32375 | 26079 ft | 269 kts | 223° |
| 2026-05-07 18:29 | 38.52871 | -87.33561 | 26081 ft | 269 kts | 223° |
| 2026-05-07 18:29 | 38.51240 | -87.34732 | 26079 ft | 269 kts | 223° |
| 2026-05-07 18:29 | 38.49613 | -87.35898 | 26081 ft | 269 kts | 223° |
| 2026-05-07 18:30 | 38.47975 | -87.37073 | 26084 ft | 270 kts | 223° |
| 2026-05-07 18:30 | 38.46352 | -87.38236 | 26088 ft | 272 kts | 222° |
| 2026-05-07 18:30 | 38.44703 | -87.39415 | 26086 ft | 272 kts | 222° |
| 2026-05-07 18:30 | 38.43053 | -87.40597 | 26086 ft | 273 kts | 222° |
| 2026-05-07 18:31 | 38.41390 | -87.41785 | 26084 ft | 274 kts | 222° |
| 2026-05-07 18:31 | 38.39730 | -87.42971 | 26084 ft | 274 kts | 222° |
| 2026-05-07 18:31 | 38.38066 | -87.44161 | 26092 ft | 274 kts | 222° |
| 2026-05-07 18:31 | 38.36402 | -87.45348 | 26082 ft | 274 kts | 222° |
| 2026-05-07 18:32 | 38.34737 | -87.46537 | 26088 ft | 274 kts | 222° |
| 2026-05-07 18:32 | 38.33070 | -87.47727 | 26087 ft | 274 kts | 222° |
| 2026-05-07 18:32 | 38.31402 | -87.48914 | 26094 ft | 274 kts | 222° |
| 2026-05-07 18:32 | 38.29738 | -87.50102 | 26088 ft | 274 kts | 222° |
| 2026-05-07 18:33 | 38.28071 | -87.51288 | 26090 ft | 274 kts | 222° |
| 2026-05-07 18:33 | 38.26408 | -87.52472 | 26093 ft | 274 kts | 222° |
| 2026-05-07 18:33 | 38.24741 | -87.53659 | 26090 ft | 274 kts | 222° |
| 2026-05-07 18:33 | 38.23074 | -87.54843 | 26093 ft | 274 kts | 222° |
| 2026-05-07 18:34 | 38.21415 | -87.56022 | 26091 ft | 274 kts | 222° |
| 2026-05-07 18:34 | 38.19748 | -87.57206 | 26097 ft | 274 kts | 222° |
| 2026-05-07 18:34 | 38.18084 | -87.58388 | 26093 ft | 274 kts | 222° |
| 2026-05-07 18:34 | 38.16421 | -87.59567 | 26093 ft | 274 kts | 222° |
| 2026-05-07 18:35 | 38.14758 | -87.60746 | 26094 ft | 273 kts | 222° |
| 2026-05-07 18:35 | 38.13121 | -87.61908 | 26095 ft | 273 kts | 222° |
| 2026-05-07 18:35 | 38.11459 | -87.63084 | 26095 ft | 273 kts | 222° |
| 2026-05-07 18:35 | 38.09802 | -87.64257 | 26096 ft | 273 kts | 222° |
| 2026-05-07 18:36 | 38.08144 | -87.65432 | 26097 ft | 273 kts | 222° |
| 2026-05-07 18:36 | 38.06485 | -87.66604 | 26100 ft | 273 kts | 222° |
| 2026-05-07 18:36 | 38.04830 | -87.67775 | 26097 ft | 273 kts | 222° |
| 2026-05-07 18:36 | 38.03163 | -87.68952 | 26094 ft | 273 kts | 222° |
| 2026-05-07 18:37 | 38.01504 | -87.70123 | 26096 ft | 273 kts | 222° |
| 2026-05-07 18:37 | 37.99850 | -87.71292 | 26095 ft | 273 kts | 222° |
| 2026-05-07 18:37 | 37.98191 | -87.72461 | 26096 ft | 273 kts | 222° |
| 2026-05-07 18:37 | 37.96531 | -87.73632 | 26096 ft | 273 kts | 222° |
| 2026-05-07 18:38 | 37.94880 | -87.74796 | 26097 ft | 272 kts | 222° |
| 2026-05-07 18:38 | 37.93217 | -87.75957 | 26095 ft | 273 kts | 221° |
| 2026-05-07 18:38 | 37.91460 | -87.76962 | 26097 ft | 283 kts | 214° |
| 2026-05-07 18:38 | 37.89587 | -87.77763 | 26098 ft | 283 kts | 213° |
| 2026-05-07 18:39 | 37.87771 | -87.78670 | 26096 ft | 280 kts | 216° |
| 2026-05-07 18:39 | 37.85945 | -87.79556 | 26098 ft | 282 kts | 214° |
| 2026-05-07 18:39 | 37.84108 | -87.80419 | 26097 ft | 281 kts | 215° |
| 2026-05-07 18:39 | 37.82290 | -87.81314 | 26097 ft | 281 kts | 214° |
| 2026-05-07 18:40 | 37.80454 | -87.82188 | 26096 ft | 281 kts | 214° |
| 2026-05-07 18:40 | 37.78625 | -87.83065 | 26097 ft | 281 kts | 214° |
| 2026-05-07 18:40 | 37.76804 | -87.83944 | 26096 ft | 281 kts | 214° |
| 2026-05-07 18:40 | 37.74975 | -87.84818 | 26099 ft | 281 kts | 214° |
| 2026-05-07 18:41 | 37.73148 | -87.85694 | 26094 ft | 281 kts | 214° |
| 2026-05-07 18:41 | 37.71326 | -87.86569 | 26096 ft | 281 kts | 214° |
| 2026-05-07 18:41 | 37.69503 | -87.87440 | 26091 ft | 281 kts | 214° |
| 2026-05-07 18:41 | 37.67686 | -87.88304 | 26346 ft | 269 kts | 214° |
| 2026-05-07 18:42 | 37.66019 | -87.89089 | 27105 ft | 243 kts | 217° |
| 2026-05-07 18:42 | 37.64481 | -87.89850 | 27444 ft | 240 kts | 217° |
| 2026-05-07 18:42 | 37.62924 | -87.90597 | 27698 ft | 240 kts | 216° |
| 2026-05-07 18:42 | 37.61369 | -87.91325 | 27896 ft | 240 kts | 217° |
| 2026-05-07 18:43 | 37.59798 | -87.92085 | 28008 ft | 243 kts | 217° |
| 2026-05-07 18:43 | 37.58192 | -87.92851 | 28051 ft | 249 kts | 216° |
| 2026-05-07 18:43 | 37.56554 | -87.93624 | 28071 ft | 253 kts | 216° |
| 2026-05-07 18:43 | 37.54894 | -87.94419 | 28083 ft | 257 kts | 216° |
| 2026-05-07 18:44 | 37.53218 | -87.95217 | 28092 ft | 260 kts | 216° |
| 2026-05-07 18:44 | 37.51505 | -87.96029 | 28092 ft | 263 kts | 216° |
| 2026-05-07 18:44 | 37.49787 | -87.96849 | 28091 ft | 265 kts | 216° |
| 2026-05-07 18:44 | 37.48057 | -87.97672 | 28092 ft | 267 kts | 215° |
| 2026-05-07 18:45 | 37.46329 | -87.98516 | 28093 ft | 264 kts | 218° |
| 2026-05-07 18:45 | 37.44726 | -87.99563 | 28094 ft | 259 kts | 223° |
| 2026-05-07 18:45 | 37.43126 | -88.00642 | 28096 ft | 263 kts | 220° |
| 2026-05-07 18:45 | 37.41473 | -88.01651 | 28097 ft | 263 kts | 220° |
| 2026-05-07 18:46 | 37.39859 | -88.02710 | 28095 ft | 262 kts | 221° |
| 2026-05-07 18:46 | 37.38228 | -88.03754 | 28096 ft | 264 kts | 220° |
| 2026-05-07 18:46 | 37.37141 | -88.04438 | 28099 ft | 264 kts | 220° |
| 2026-05-07 18:46 | 37.34960 | -88.05842 | 28096 ft | 263 kts | 221° |
| 2026-05-07 18:47 | 37.33883 | -88.06532 | 28097 ft | 264 kts | 220° |
| 2026-05-07 18:47 | 37.32238 | -88.07578 | 28096 ft | 264 kts | 220° |
| 2026-05-07 18:47 | 37.30600 | -88.08628 | 28095 ft | 264 kts | 221° |
| 2026-05-07 18:47 | 37.28962 | -88.09675 | 28095 ft | 264 kts | 221° |
| 2026-05-07 18:48 | 37.27326 | -88.10717 | 28097 ft | 264 kts | 221° |
| 2026-05-07 18:48 | 37.25691 | -88.11763 | 28096 ft | 264 kts | 221° |
| 2026-05-07 18:48 | 37.24057 | -88.12806 | 28096 ft | 264 kts | 221° |
| 2026-05-07 18:48 | 37.22418 | -88.13850 | 28096 ft | 264 kts | 221° |
| 2026-05-07 18:49 | 37.20783 | -88.14893 | 28094 ft | 264 kts | 221° |
| 2026-05-07 18:49 | 37.19145 | -88.15936 | 28097 ft | 264 kts | 221° |
| 2026-05-07 18:49 | 37.17509 | -88.16978 | 28091 ft | 264 kts | 221° |
| 2026-05-07 18:49 | 37.15873 | -88.18020 | 28087 ft | 264 kts | 221° |
| 2026-05-07 18:50 | 37.14235 | -88.19061 | 28092 ft | 264 kts | 221° |
| 2026-05-07 18:50 | 37.12598 | -88.20103 | 28090 ft | 264 kts | 221° |
| 2026-05-07 18:50 | 37.10962 | -88.21143 | 28093 ft | 264 kts | 221° |
| 2026-05-07 18:50 | 37.09327 | -88.22181 | 28091 ft | 264 kts | 221° |
| 2026-05-07 18:51 | 37.07689 | -88.23221 | 28085 ft | 264 kts | 221° |
| 2026-05-07 18:51 | 37.06055 | -88.24258 | 28080 ft | 264 kts | 221° |
| 2026-05-07 18:51 | 37.04420 | -88.25295 | 28080 ft | 263 kts | 221° |
| 2026-05-07 18:51 | 37.02786 | -88.26331 | 28081 ft | 264 kts | 221° |
| 2026-05-07 18:52 | 37.01169 | -88.27356 | 28081 ft | 264 kts | 221° |
| 2026-05-07 18:52 | 36.99538 | -88.28389 | 28081 ft | 263 kts | 221° |
| 2026-05-07 18:52 | 36.97899 | -88.29427 | 28084 ft | 263 kts | 221° |
| 2026-05-07 18:52 | 36.96268 | -88.30459 | 28083 ft | 263 kts | 221° |
| 2026-05-07 18:53 | 36.94630 | -88.31495 | 28084 ft | 263 kts | 221° |
| 2026-05-07 18:53 | 36.93001 | -88.32524 | 28083 ft | 263 kts | 221° |
| 2026-05-07 18:53 | 36.91366 | -88.33558 | 28084 ft | 263 kts | 221° |
| 2026-05-07 18:53 | 36.89735 | -88.34588 | 28086 ft | 263 kts | 221° |
| 2026-05-07 18:54 | 36.88102 | -88.35619 | 28085 ft | 263 kts | 221° |
| 2026-05-07 18:54 | 36.86476 | -88.36645 | 28089 ft | 262 kts | 221° |
| 2026-05-07 18:54 | 36.84842 | -88.37675 | 28085 ft | 262 kts | 221° |
| 2026-05-07 18:54 | 36.83215 | -88.38701 | 28087 ft | 262 kts | 221° |
| 2026-05-07 18:55 | 36.81586 | -88.39728 | 28090 ft | 262 kts | 221° |
| 2026-05-07 18:55 | 36.79957 | -88.40753 | 28085 ft | 262 kts | 221° |
| 2026-05-07 18:55 | 36.78333 | -88.41775 | 28086 ft | 262 kts | 221° |
| 2026-05-07 18:55 | 36.76708 | -88.42798 | 28084 ft | 261 kts | 221° |
| 2026-05-07 18:56 | 36.75084 | -88.43819 | 28088 ft | 261 kts | 221° |
| 2026-05-07 18:56 | 36.73461 | -88.44839 | 28087 ft | 261 kts | 221° |
| 2026-05-07 18:56 | 36.71837 | -88.45859 | 28088 ft | 261 kts | 222° |
| 2026-05-07 18:56 | 36.70220 | -88.46875 | 28085 ft | 260 kts | 222° |
| 2026-05-07 18:57 | 36.68605 | -88.47888 | 28087 ft | 260 kts | 222° |
| 2026-05-07 18:57 | 36.66992 | -88.48901 | 28089 ft | 259 kts | 222° |
| 2026-05-07 18:57 | 36.65386 | -88.49908 | 28088 ft | 259 kts | 222° |
| 2026-05-07 18:57 | 36.63779 | -88.50915 | 28089 ft | 258 kts | 222° |
| 2026-05-07 18:58 | 36.62175 | -88.51920 | 28088 ft | 258 kts | 222° |
| 2026-05-07 18:58 | 36.60568 | -88.52927 | 28090 ft | 258 kts | 222° |
| 2026-05-07 18:58 | 36.58969 | -88.53927 | 28088 ft | 258 kts | 222° |
| 2026-05-07 18:58 | 36.57369 | -88.54928 | 28087 ft | 257 kts | 222° |
| 2026-05-07 18:59 | 36.55788 | -88.55917 | 28089 ft | 256 kts | 223° |
| 2026-05-07 18:59 | 36.54177 | -88.56924 | 28086 ft | 256 kts | 223° |
| 2026-05-07 18:59 | 36.52587 | -88.57917 | 28086 ft | 256 kts | 223° |
| 2026-05-07 18:59 | 36.50999 | -88.58908 | 28087 ft | 256 kts | 223° |
| 2026-05-07 19:00 | 36.49414 | -88.59899 | 28078 ft | 256 kts | 223° |
| 2026-05-07 19:00 | 36.47821 | -88.60892 | 28077 ft | 255 kts | 223° |
| 2026-05-07 19:00 | 36.46234 | -88.61881 | 28079 ft | 255 kts | 223° |
| 2026-05-07 19:00 | 36.44652 | -88.62868 | 28079 ft | 255 kts | 223° |
| 2026-05-07 19:01 | 36.43066 | -88.63855 | 28079 ft | 254 kts | 223° |
| 2026-05-07 19:01 | 36.41508 | -88.64825 | 28074 ft | 253 kts | 223° |
| 2026-05-07 19:01 | 36.39913 | -88.65819 | 28078 ft | 253 kts | 223° |
| 2026-05-07 19:01 | 36.38357 | -88.66786 | 28078 ft | 253 kts | 223° |
| 2026-05-07 19:02 | 36.36789 | -88.67761 | 28068 ft | 252 kts | 223° |
| 2026-05-07 19:02 | 36.35228 | -88.68732 | 28080 ft | 251 kts | 223° |
| 2026-05-07 19:02 | 36.33646 | -88.69715 | 28075 ft | 250 kts | 223° |
| 2026-05-07 19:02 | 36.32114 | -88.70667 | 28085 ft | 250 kts | 223° |
| 2026-05-07 19:03 | 36.30553 | -88.71635 | 28091 ft | 250 kts | 223° |
| 2026-05-07 19:03 | 36.29006 | -88.72596 | 28086 ft | 249 kts | 223° |
| 2026-05-07 19:03 | 36.27452 | -88.73559 | 28087 ft | 249 kts | 224° |
| 2026-05-07 19:03 | 36.25908 | -88.74516 | 28083 ft | 248 kts | 224° |
| 2026-05-07 19:04 | 36.24361 | -88.75475 | 28085 ft | 248 kts | 224° |
| 2026-05-07 19:04 | 36.22823 | -88.76427 | 28087 ft | 247 kts | 224° |
| 2026-05-07 19:04 | 36.21281 | -88.77382 | 28085 ft | 247 kts | 224° |
| 2026-05-07 19:04 | 36.19746 | -88.78332 | 28086 ft | 247 kts | 224° |
| 2026-05-07 19:05 | 36.18208 | -88.79283 | 28084 ft | 246 kts | 224° |
| 2026-05-07 19:05 | 36.16679 | -88.80228 | 28085 ft | 246 kts | 224° |
| 2026-05-07 19:05 | 36.15147 | -88.81177 | 28085 ft | 246 kts | 224° |
| 2026-05-07 19:05 | 36.13618 | -88.82120 | 28087 ft | 246 kts | 224° |
| 2026-05-07 19:06 | 36.12084 | -88.83067 | 28088 ft | 246 kts | 224° |
| 2026-05-07 19:06 | 36.09031 | -88.84951 | 28089 ft | 245 kts | 224° |
| 2026-05-07 19:06 | 36.07507 | -88.85891 | 28087 ft | 245 kts | 224° |
| 2026-05-07 19:07 | 36.05982 | -88.86831 | 28086 ft | 245 kts | 224° |
| 2026-05-07 19:07 | 36.04458 | -88.87770 | 28085 ft | 245 kts | 224° |
| 2026-05-07 19:07 | 36.02934 | -88.88709 | 28087 ft | 245 kts | 224° |
| 2026-05-07 19:07 | 36.01410 | -88.89645 | 28089 ft | 244 kts | 224° |
| 2026-05-07 19:08 | 35.99887 | -88.90583 | 28090 ft | 244 kts | 224° |
| 2026-05-07 19:08 | 35.98367 | -88.91519 | 28090 ft | 244 kts | 224° |
| 2026-05-07 19:08 | 35.96846 | -88.92452 | 28088 ft | 244 kts | 224° |
| 2026-05-07 19:08 | 35.95348 | -88.93373 | 28090 ft | 243 kts | 224° |
| 2026-05-07 19:09 | 35.93834 | -88.94305 | 28092 ft | 243 kts | 224° |
| 2026-05-07 19:09 | 35.92319 | -88.95234 | 28089 ft | 243 kts | 224° |
| 2026-05-07 19:09 | 35.90807 | -88.96161 | 28089 ft | 242 kts | 224° |
| 2026-05-07 19:09 | 35.89298 | -88.97089 | 28091 ft | 243 kts | 224° |
| 2026-05-07 19:10 | 35.87784 | -88.98017 | 28087 ft | 243 kts | 224° |
| 2026-05-07 19:10 | 35.86269 | -88.98944 | 28088 ft | 243 kts | 224° |
| 2026-05-07 19:10 | 35.84759 | -88.99871 | 28087 ft | 242 kts | 224° |
| 2026-05-07 19:10 | 35.83252 | -89.00792 | 28088 ft | 242 kts | 224° |
| 2026-05-07 19:11 | 35.81743 | -89.01716 | 28089 ft | 242 kts | 224° |
| 2026-05-07 19:11 | 35.80235 | -89.02640 | 28087 ft | 242 kts | 224° |
| 2026-05-07 19:11 | 35.78735 | -89.03556 | 28087 ft | 241 kts | 224° |
| 2026-05-07 19:11 | 35.77234 | -89.04474 | 28089 ft | 241 kts | 224° |
| 2026-05-07 19:12 | 35.75737 | -89.05389 | 28087 ft | 240 kts | 224° |
| 2026-05-07 19:12 | 35.74239 | -89.06303 | 28091 ft | 239 kts | 224° |
| 2026-05-07 19:12 | 35.72753 | -89.07219 | 28089 ft | 240 kts | 224° |
| 2026-05-07 19:12 | 35.71207 | -89.08042 | 28089 ft | 244 kts | 221° |
| 2026-05-07 19:13 | 35.69663 | -89.08874 | 28086 ft | 240 kts | 223° |
| 2026-05-07 19:13 | 35.68143 | -89.09733 | 28087 ft | 241 kts | 223° |
| 2026-05-07 19:13 | 35.66619 | -89.10554 | 28096 ft | 242 kts | 222° |
| 2026-05-07 19:13 | 35.65064 | -89.11403 | 28086 ft | 241 kts | 223° |
| 2026-05-07 19:14 | 35.63536 | -89.12248 | 28084 ft | 241 kts | 223° |
| 2026-05-07 19:14 | 35.62002 | -89.13082 | 28088 ft | 241 kts | 223° |
| 2026-05-07 19:14 | 35.60488 | -89.13909 | 28088 ft | 241 kts | 223° |
| 2026-05-07 19:14 | 35.58963 | -89.14747 | 28091 ft | 241 kts | 223° |
| 2026-05-07 19:15 | 35.57427 | -89.15584 | 28083 ft | 240 kts | 223° |
| 2026-05-07 19:15 | 35.55899 | -89.16419 | 28085 ft | 240 kts | 223° |
| 2026-05-07 19:15 | 35.54378 | -89.17251 | 28085 ft | 240 kts | 223° |
| 2026-05-07 19:15 | 35.52848 | -89.18086 | 28088 ft | 240 kts | 223° |
| 2026-05-07 19:16 | 35.51322 | -89.18917 | 28087 ft | 240 kts | 223° |
| 2026-05-07 19:16 | 35.49794 | -89.19751 | 28087 ft | 240 kts | 223° |
| 2026-05-07 19:16 | 35.48271 | -89.20582 | 28088 ft | 240 kts | 223° |
| 2026-05-07 19:16 | 35.46745 | -89.21413 | 28088 ft | 240 kts | 223° |
| 2026-05-07 19:17 | 35.45214 | -89.22247 | 28085 ft | 240 kts | 223° |
| 2026-05-07 19:17 | 35.43700 | -89.23072 | 28083 ft | 240 kts | 223° |
| 2026-05-07 19:17 | 35.42164 | -89.23907 | 28084 ft | 240 kts | 223° |
| 2026-05-07 19:17 | 35.40633 | -89.24740 | 28082 ft | 240 kts | 223° |
| 2026-05-07 19:18 | 35.39102 | -89.25572 | 28082 ft | 240 kts | 223° |
| 2026-05-07 19:18 | 35.37576 | -89.26402 | 28082 ft | 240 kts | 223° |
| 2026-05-07 19:18 | 35.36047 | -89.27233 | 28083 ft | 240 kts | 223° |
| 2026-05-07 19:18 | 35.34537 | -89.28053 | 28082 ft | 240 kts | 223° |
| 2026-05-07 19:19 | 35.32989 | -89.28894 | 28080 ft | 240 kts | 223° |
| 2026-05-07 19:19 | 35.31493 | -89.29705 | 28080 ft | 240 kts | 223° |
| 2026-05-07 19:19 | 35.29933 | -89.30552 | 28080 ft | 240 kts | 223° |
| 2026-05-07 19:19 | 35.28427 | -89.31369 | 28076 ft | 240 kts | 223° |
| 2026-05-07 19:20 | 35.26904 | -89.32194 | 28076 ft | 241 kts | 223° |
| 2026-05-07 19:20 | 35.25366 | -89.33027 | 28078 ft | 241 kts | 223° |
| 2026-05-07 19:20 | 35.23835 | -89.33856 | 28082 ft | 241 kts | 223° |
| 2026-05-07 19:20 | 35.22294 | -89.34690 | 28077 ft | 241 kts | 223° |
| 2026-05-07 19:21 | 35.20759 | -89.35521 | 28077 ft | 242 kts | 223° |
| 2026-05-07 19:21 | 35.19219 | -89.36354 | 28079 ft | 242 kts | 223° |
| 2026-05-07 19:21 | 35.17688 | -89.37181 | 28078 ft | 242 kts | 223° |
| 2026-05-07 19:21 | 35.16140 | -89.38017 | 28078 ft | 242 kts | 223° |
| 2026-05-07 19:22 | 35.14598 | -89.38852 | 28077 ft | 242 kts | 223° |
| 2026-05-07 19:22 | 35.13054 | -89.39685 | 28077 ft | 242 kts | 223° |
| 2026-05-07 19:22 | 35.11517 | -89.40514 | 28077 ft | 242 kts | 223° |
| 2026-05-07 19:22 | 35.09973 | -89.41348 | 28079 ft | 242 kts | 223° |
| 2026-05-07 19:23 | 35.08430 | -89.42178 | 28078 ft | 242 kts | 223° |
| 2026-05-07 19:23 | 35.06891 | -89.43010 | 28080 ft | 242 kts | 223° |
| 2026-05-07 19:23 | 35.05350 | -89.43841 | 28080 ft | 242 kts | 222° |
| 2026-05-07 19:23 | 35.03806 | -89.44672 | 28080 ft | 242 kts | 222° |
| 2026-05-07 19:24 | 35.02263 | -89.45503 | 28079 ft | 242 kts | 222° |
| 2026-05-07 19:24 | 35.00727 | -89.46329 | 28077 ft | 243 kts | 222° |
| 2026-05-07 19:24 | 34.99174 | -89.47165 | 28081 ft | 242 kts | 222° |
| 2026-05-07 19:24 | 34.97632 | -89.47994 | 28074 ft | 242 kts | 222° |
| 2026-05-07 19:25 | 34.96092 | -89.48822 | 28079 ft | 242 kts | 222° |
| 2026-05-07 19:25 | 34.94547 | -89.49652 | 28085 ft | 242 kts | 222° |
| 2026-05-07 19:25 | 34.93005 | -89.50479 | 28084 ft | 242 kts | 222° |
| 2026-05-07 19:25 | 34.91464 | -89.51307 | 28091 ft | 242 kts | 222° |
| 2026-05-07 19:26 | 34.89922 | -89.52135 | 28085 ft | 243 kts | 222° |
| 2026-05-07 19:26 | 34.88374 | -89.52965 | 28086 ft | 243 kts | 222° |
| 2026-05-07 19:26 | 34.86827 | -89.53794 | 28086 ft | 243 kts | 222° |
| 2026-05-07 19:26 | 34.85283 | -89.54622 | 28084 ft | 242 kts | 222° |
| 2026-05-07 19:27 | 34.83745 | -89.55446 | 28085 ft | 242 kts | 222° |
| 2026-05-07 19:27 | 34.82196 | -89.56277 | 28083 ft | 244 kts | 221° |
| 2026-05-07 19:27 | 34.80636 | -89.57111 | 28082 ft | 245 kts | 221° |
| 2026-05-07 19:27 | 34.79075 | -89.57944 | 28081 ft | 246 kts | 221° |
| 2026-05-07 19:28 | 34.77509 | -89.58784 | 28083 ft | 246 kts | 221° |
| 2026-05-07 19:28 | 34.75935 | -89.59625 | 28081 ft | 247 kts | 221° |
| 2026-05-07 19:28 | 34.74371 | -89.60460 | 28082 ft | 247 kts | 221° |
| 2026-05-07 19:28 | 34.72792 | -89.61304 | 28081 ft | 247 kts | 221° |
| 2026-05-07 19:29 | 34.71212 | -89.62148 | 28082 ft | 248 kts | 221° |
| 2026-05-07 19:29 | 34.69630 | -89.62992 | 28081 ft | 248 kts | 221° |
| 2026-05-07 19:29 | 34.68053 | -89.63834 | 28083 ft | 248 kts | 221° |
| 2026-05-07 19:29 | 34.66476 | -89.64674 | 28084 ft | 248 kts | 221° |
| 2026-05-07 19:30 | 34.64902 | -89.65514 | 28086 ft | 248 kts | 221° |
| 2026-05-07 19:30 | 34.63320 | -89.66357 | 28086 ft | 248 kts | 220° |
| 2026-05-07 19:30 | 34.61743 | -89.67197 | 28084 ft | 248 kts | 220° |
| 2026-05-07 19:30 | 34.60186 | -89.68026 | 28085 ft | 247 kts | 220° |
| 2026-05-07 19:31 | 34.58611 | -89.68864 | 28086 ft | 247 kts | 220° |
| 2026-05-07 19:31 | 34.57037 | -89.69701 | 28088 ft | 247 kts | 220° |
| 2026-05-07 19:31 | 34.55461 | -89.70539 | 28088 ft | 247 kts | 220° |
| 2026-05-07 19:31 | 34.53885 | -89.71376 | 28087 ft | 247 kts | 220° |
| 2026-05-07 19:32 | 34.52315 | -89.72211 | 28090 ft | 247 kts | 220° |
| 2026-05-07 19:32 | 34.50745 | -89.73045 | 28077 ft | 247 kts | 220° |
| 2026-05-07 19:32 | 34.49171 | -89.73881 | 28077 ft | 247 kts | 220° |
| 2026-05-07 19:32 | 34.47596 | -89.74717 | 28075 ft | 247 kts | 220° |
| 2026-05-07 19:33 | 34.46031 | -89.75546 | 28081 ft | 246 kts | 220° |
| 2026-05-07 19:33 | 34.44456 | -89.76382 | 28080 ft | 246 kts | 220° |
| 2026-05-07 19:33 | 34.42882 | -89.77216 | 28082 ft | 246 kts | 220° |
| 2026-05-07 19:33 | 34.41313 | -89.78047 | 28070 ft | 247 kts | 220° |
| 2026-05-07 19:34 | 34.39739 | -89.78880 | 28082 ft | 247 kts | 220° |
| 2026-05-07 19:34 | 34.38700 | -89.79431 | 28079 ft | 247 kts | 220° |
| 2026-05-07 19:34 | 34.37124 | -89.80265 | 28083 ft | 247 kts | 220° |
| 2026-05-07 19:34 | 34.35546 | -89.81100 | 28082 ft | 247 kts | 220° |
| 2026-05-07 19:35 | 34.33972 | -89.81932 | 28070 ft | 248 kts | 220° |
| 2026-05-07 19:35 | 34.32393 | -89.82766 | 28081 ft | 248 kts | 220° |
| 2026-05-07 19:35 | 34.30813 | -89.83601 | 28078 ft | 248 kts | 220° |
| 2026-05-07 19:35 | 34.29228 | -89.84439 | 28079 ft | 248 kts | 220° |
| 2026-05-07 19:36 | 34.27647 | -89.85273 | 28078 ft | 249 kts | 220° |
| 2026-05-07 19:36 | 34.26061 | -89.86110 | 28079 ft | 249 kts | 220° |
| 2026-05-07 19:36 | 34.24474 | -89.86947 | 28080 ft | 249 kts | 220° |
| 2026-05-07 19:36 | 34.22888 | -89.87782 | 28079 ft | 249 kts | 220° |
| 2026-05-07 19:37 | 34.21299 | -89.88620 | 28080 ft | 249 kts | 220° |
| 2026-05-07 19:37 | 34.19714 | -89.89456 | 28078 ft | 249 kts | 220° |
| 2026-05-07 19:37 | 34.18123 | -89.90293 | 28077 ft | 249 kts | 220° |
| 2026-05-07 19:37 | 34.16538 | -89.91127 | 28077 ft | 249 kts | 220° |
| 2026-05-07 19:38 | 34.14943 | -89.91967 | 28079 ft | 249 kts | 220° |
| 2026-05-07 19:38 | 34.13354 | -89.92803 | 28079 ft | 250 kts | 220° |
| 2026-05-07 19:38 | 34.11762 | -89.93639 | 28082 ft | 250 kts | 220° |
| 2026-05-07 19:38 | 34.10170 | -89.94476 | 28078 ft | 250 kts | 220° |
| 2026-05-07 19:39 | 34.08575 | -89.95314 | 28078 ft | 250 kts | 219° |
| 2026-05-07 19:39 | 34.06982 | -89.96150 | 28078 ft | 250 kts | 220° |
| 2026-05-07 19:39 | 34.05385 | -89.96989 | 28077 ft | 250 kts | 219° |
| 2026-05-07 19:39 | 34.03787 | -89.97827 | 28080 ft | 250 kts | 219° |
| 2026-05-07 19:40 | 34.02191 | -89.98664 | 28076 ft | 251 kts | 219° |
| 2026-05-07 19:40 | 34.00591 | -89.99502 | 28075 ft | 251 kts | 219° |
| 2026-05-07 19:40 | 33.98993 | -90.00339 | 28074 ft | 251 kts | 219° |
| 2026-05-07 19:40 | 33.97391 | -90.01179 | 28078 ft | 251 kts | 219° |
| 2026-05-07 19:41 | 33.95787 | -90.02019 | 28077 ft | 251 kts | 219° |
| 2026-05-07 19:41 | 33.94187 | -90.02856 | 28077 ft | 251 kts | 219° |
| 2026-05-07 19:41 | 33.92579 | -90.03697 | 28078 ft | 251 kts | 219° |
| 2026-05-07 19:41 | 33.90977 | -90.04535 | 28075 ft | 252 kts | 219° |
| 2026-05-07 19:42 | 33.89366 | -90.05377 | 28075 ft | 252 kts | 219° |
| 2026-05-07 19:42 | 33.87761 | -90.06216 | 28075 ft | 252 kts | 219° |
| 2026-05-07 19:42 | 33.86154 | -90.07055 | 28073 ft | 252 kts | 219° |
| 2026-05-07 19:42 | 33.84538 | -90.07898 | 28075 ft | 253 kts | 219° |
| 2026-05-07 19:43 | 33.82930 | -90.08737 | 28073 ft | 252 kts | 219° |
| 2026-05-07 19:43 | 33.81316 | -90.09579 | 28073 ft | 253 kts | 218° |
| 2026-05-07 19:43 | 33.79721 | -90.10411 | 28074 ft | 253 kts | 218° |
| 2026-05-07 19:43 | 33.78091 | -90.11260 | 28073 ft | 253 kts | 218° |
| 2026-05-07 19:44 | 33.76495 | -90.12093 | 28074 ft | 252 kts | 218° |
| 2026-05-07 19:44 | 33.74877 | -90.12933 | 28075 ft | 251 kts | 218° |
| 2026-05-07 19:44 | 33.73267 | -90.13775 | 28073 ft | 253 kts | 218° |
| 2026-05-07 19:44 | 33.71668 | -90.14605 | 28073 ft | 254 kts | 218° |
| 2026-05-07 19:45 | 33.70042 | -90.15449 | 28078 ft | 255 kts | 218° |
| 2026-05-07 19:45 | 33.68415 | -90.16297 | 28075 ft | 256 kts | 218° |
| 2026-05-07 19:45 | 33.66778 | -90.17147 | 28074 ft | 256 kts | 218° |
| 2026-05-07 19:45 | 33.65144 | -90.17996 | 28076 ft | 257 kts | 218° |
| 2026-05-07 19:46 | 33.63501 | -90.18849 | 28077 ft | 257 kts | 218° |
| 2026-05-07 19:46 | 33.61859 | -90.19701 | 28076 ft | 257 kts | 218° |
| 2026-05-07 19:46 | 33.60216 | -90.20553 | 28078 ft | 258 kts | 218° |
| 2026-05-07 19:46 | 33.58570 | -90.21407 | 28077 ft | 258 kts | 218° |
| 2026-05-07 19:47 | 33.56925 | -90.22260 | 28077 ft | 258 kts | 218° |
| 2026-05-07 19:47 | 33.55278 | -90.23113 | 28080 ft | 258 kts | 217° |
| 2026-05-07 19:47 | 33.53632 | -90.23965 | 28077 ft | 258 kts | 217° |
| 2026-05-07 19:47 | 33.51982 | -90.24820 | 28078 ft | 258 kts | 217° |
| 2026-05-07 19:48 | 33.50339 | -90.25671 | 28076 ft | 257 kts | 217° |
| 2026-05-07 19:48 | 33.48700 | -90.26518 | 28078 ft | 256 kts | 217° |
| 2026-05-07 19:48 | 33.47073 | -90.27359 | 28076 ft | 255 kts | 217° |
| 2026-05-07 19:48 | 33.45371 | -90.28070 | 28076 ft | 265 kts | 209° |
| 2026-05-07 19:49 | 33.43553 | -90.28519 | 28075 ft | 268 kts | 207° |
| 2026-05-07 19:49 | 33.41766 | -90.29024 | 28076 ft | 262 kts | 210° |
| 2026-05-07 19:49 | 33.39990 | -90.29562 | 28076 ft | 264 kts | 208° |
| 2026-05-07 19:49 | 33.38201 | -90.30048 | 28076 ft | 263 kts | 209° |
| 2026-05-07 19:50 | 33.36420 | -90.30569 | 28076 ft | 262 kts | 209° |
| 2026-05-07 19:50 | 33.34644 | -90.31081 | 28074 ft | 263 kts | 208° |
| 2026-05-07 19:50 | 33.32860 | -90.31583 | 28075 ft | 263 kts | 209° |
| 2026-05-07 19:50 | 33.31239 | -90.32050 | 28075 ft | 263 kts | 209° |
| 2026-05-07 19:51 | 33.29421 | -90.32571 | 28074 ft | 262 kts | 209° |
| 2026-05-07 19:51 | 33.27651 | -90.33074 | 28076 ft | 262 kts | 208° |
| 2026-05-07 19:51 | 33.25871 | -90.33583 | 28071 ft | 263 kts | 208° |
| 2026-05-07 19:51 | 33.24097 | -90.34090 | 28074 ft | 263 kts | 208° |
| 2026-05-07 19:52 | 33.22336 | -90.34592 | 28072 ft | 263 kts | 208° |
| 2026-05-07 19:52 | 33.20531 | -90.35106 | 28069 ft | 263 kts | 208° |
| 2026-05-07 19:52 | 33.18774 | -90.35606 | 28070 ft | 263 kts | 208° |
| 2026-05-07 19:52 | 33.16984 | -90.36116 | 28068 ft | 263 kts | 208° |
| 2026-05-07 19:53 | 33.15202 | -90.36623 | 28070 ft | 263 kts | 208° |
| 2026-05-07 19:53 | 33.13418 | -90.37131 | 28069 ft | 264 kts | 208° |
| 2026-05-07 19:53 | 33.11633 | -90.37639 | 28076 ft | 264 kts | 208° |
| 2026-05-07 19:53 | 33.09845 | -90.38147 | 28075 ft | 264 kts | 208° |
| 2026-05-07 19:54 | 33.08060 | -90.38655 | 28073 ft | 264 kts | 208° |
| 2026-05-07 19:54 | 33.06277 | -90.39161 | 28068 ft | 264 kts | 208° |
| 2026-05-07 19:54 | 33.04503 | -90.39662 | 28074 ft | 261 kts | 208° |
| 2026-05-07 19:54 | 33.02735 | -90.40169 | 28068 ft | 262 kts | 208° |
| 2026-05-07 19:55 | 33.00954 | -90.40674 | 28066 ft | 264 kts | 208° |
| 2026-05-07 19:55 | 32.99162 | -90.41179 | 28065 ft | 264 kts | 208° |
| 2026-05-07 19:55 | 32.97370 | -90.41689 | 28066 ft | 265 kts | 208° |
| 2026-05-07 19:55 | 32.95568 | -90.42199 | 28067 ft | 266 kts | 208° |
| 2026-05-07 19:56 | 32.93771 | -90.42707 | 28065 ft | 266 kts | 208° |
| 2026-05-07 19:56 | 32.91971 | -90.43217 | 28066 ft | 266 kts | 208° |
| 2026-05-07 19:56 | 32.90171 | -90.43727 | 28066 ft | 266 kts | 208° |
| 2026-05-07 19:56 | 32.88366 | -90.44237 | 28067 ft | 267 kts | 208° |
| 2026-05-07 19:57 | 32.86558 | -90.44749 | 28063 ft | 267 kts | 208° |
| 2026-05-07 19:57 | 32.84749 | -90.45261 | 28063 ft | 267 kts | 208° |
| 2026-05-07 19:57 | 32.82968 | -90.45763 | 28064 ft | 267 kts | 208° |
| 2026-05-07 19:57 | 32.81133 | -90.46282 | 28063 ft | 267 kts | 208° |
| 2026-05-07 19:58 | 32.79323 | -90.46793 | 28064 ft | 267 kts | 208° |
| 2026-05-07 19:58 | 32.77513 | -90.47304 | 28064 ft | 267 kts | 208° |
| 2026-05-07 19:58 | 32.75700 | -90.47815 | 28064 ft | 268 kts | 208° |
| 2026-05-07 19:58 | 32.73882 | -90.48327 | 28062 ft | 268 kts | 208° |
| 2026-05-07 19:59 | 32.72093 | -90.48832 | 28068 ft | 268 kts | 208° |
| 2026-05-07 19:59 | 32.70281 | -90.49342 | 28067 ft | 268 kts | 208° |
| 2026-05-07 19:59 | 32.68472 | -90.49852 | 28069 ft | 268 kts | 208° |
| 2026-05-07 19:59 | 32.66654 | -90.50364 | 28065 ft | 268 kts | 208° |
| 2026-05-07 20:00 | 32.64822 | -90.50879 | 28062 ft | 268 kts | 208° |
| 2026-05-07 20:00 | 32.63036 | -90.51381 | 28067 ft | 268 kts | 208° |
| 2026-05-07 20:00 | 32.61217 | -90.51893 | 28064 ft | 267 kts | 208° |
| 2026-05-07 20:00 | 32.59405 | -90.52402 | 28066 ft | 267 kts | 208° |
| 2026-05-07 20:01 | 32.57596 | -90.52910 | 28068 ft | 267 kts | 208° |
| 2026-05-07 20:01 | 32.55793 | -90.53416 | 28065 ft | 267 kts | 208° |
| 2026-05-07 20:01 | 32.53984 | -90.53924 | 28070 ft | 267 kts | 208° |
| 2026-05-07 20:01 | 32.52169 | -90.54433 | 28069 ft | 267 kts | 208° |
| 2026-05-07 20:02 | 32.50361 | -90.54940 | 28066 ft | 267 kts | 208° |
| 2026-05-07 20:02 | 32.48551 | -90.55448 | 28067 ft | 267 kts | 208° |
| 2026-05-07 20:02 | 32.46742 | -90.55955 | 28061 ft | 267 kts | 208° |
| 2026-05-07 20:02 | 32.44936 | -90.56460 | 28064 ft | 267 kts | 208° |
| 2026-05-07 20:03 | 32.43131 | -90.56967 | 28069 ft | 267 kts | 208° |
| 2026-05-07 20:03 | 32.41323 | -90.57472 | 28065 ft | 267 kts | 207° |
| 2026-05-07 20:03 | 32.39508 | -90.57980 | 28064 ft | 267 kts | 207° |
| 2026-05-07 20:03 | 32.37700 | -90.58485 | 28057 ft | 267 kts | 207° |
| 2026-05-07 20:04 | 32.35893 | -90.58990 | 28064 ft | 267 kts | 207° |
| 2026-05-07 20:04 | 32.34106 | -90.59490 | 28067 ft | 267 kts | 207° |
| 2026-05-07 20:04 | 32.32273 | -90.60001 | 28066 ft | 267 kts | 207° |
| 2026-05-07 20:04 | 32.30487 | -90.60500 | 28058 ft | 267 kts | 207° |
| 2026-05-07 20:05 | 32.28684 | -90.61004 | 28065 ft | 267 kts | 207° |
| 2026-05-07 20:05 | 32.26867 | -90.61510 | 28063 ft | 267 kts | 207° |
| 2026-05-07 20:05 | 32.25057 | -90.62015 | 28062 ft | 267 kts | 207° |
| 2026-05-07 20:05 | 32.23244 | -90.62520 | 28064 ft | 267 kts | 207° |
| 2026-05-07 20:06 | 32.21432 | -90.63025 | 28065 ft | 267 kts | 207° |
| 2026-05-07 20:06 | 32.19625 | -90.63528 | 28065 ft | 268 kts | 207° |
| 2026-05-07 20:06 | 32.17809 | -90.64033 | 28066 ft | 268 kts | 207° |
| 2026-05-07 20:06 | 32.15993 | -90.64539 | 28067 ft | 268 kts | 207° |
| 2026-05-07 20:07 | 32.14179 | -90.65043 | 28064 ft | 268 kts | 207° |
| 2026-05-07 20:07 | 32.12365 | -90.65548 | 28066 ft | 268 kts | 207° |
| 2026-05-07 20:07 | 32.10550 | -90.66052 | 28065 ft | 268 kts | 207° |
| 2026-05-07 20:07 | 32.08733 | -90.66557 | 28064 ft | 268 kts | 207° |
| 2026-05-07 20:08 | 32.06923 | -90.67059 | 28063 ft | 268 kts | 207° |
| 2026-05-07 20:08 | 32.05110 | -90.67563 | 28065 ft | 268 kts | 207° |
| 2026-05-07 20:08 | 32.03296 | -90.68067 | 28066 ft | 268 kts | 207° |
| 2026-05-07 20:08 | 32.01480 | -90.68569 | 28065 ft | 268 kts | 207° |
| 2026-05-07 20:09 | 31.99671 | -90.69072 | 28069 ft | 267 kts | 207° |
| 2026-05-07 20:09 | 31.97859 | -90.69573 | 28073 ft | 267 kts | 207° |
| 2026-05-07 20:09 | 31.96056 | -90.70073 | 28074 ft | 266 kts | 207° |
| 2026-05-07 20:10 | 31.92447 | -90.71074 | 28067 ft | 267 kts | 206° |
| 2026-05-07 20:10 | 31.90635 | -90.71573 | 28069 ft | 268 kts | 206° |
| 2026-05-07 20:10 | 31.88828 | -90.72073 | 28071 ft | 268 kts | 206° |
| 2026-05-07 20:10 | 31.87004 | -90.72577 | 28067 ft | 268 kts | 206° |
| 2026-05-07 20:11 | 31.85186 | -90.73079 | 28069 ft | 269 kts | 206° |
| 2026-05-07 20:11 | 31.83363 | -90.73583 | 28066 ft | 269 kts | 206° |
| 2026-05-07 20:11 | 31.81539 | -90.74087 | 28072 ft | 269 kts | 206° |
| 2026-05-07 20:11 | 31.79710 | -90.74591 | 28066 ft | 269 kts | 206° |
| 2026-05-07 20:12 | 31.77921 | -90.75085 | 28065 ft | 269 kts | 206° |
| 2026-05-07 20:12 | 31.76067 | -90.75597 | 28066 ft | 269 kts | 206° |
| 2026-05-07 20:12 | 31.74263 | -90.76094 | 28068 ft | 270 kts | 206° |
| 2026-05-07 20:12 | 31.72413 | -90.76604 | 28063 ft | 270 kts | 206° |
| 2026-05-07 20:13 | 31.70603 | -90.77103 | 28067 ft | 271 kts | 206° |
| 2026-05-07 20:13 | 31.68766 | -90.77608 | 28067 ft | 271 kts | 206° |
| 2026-05-07 20:13 | 31.66933 | -90.78113 | 28064 ft | 271 kts | 206° |
| 2026-05-07 20:13 | 31.65091 | -90.78620 | 28064 ft | 272 kts | 206° |
| 2026-05-07 20:14 | 31.63259 | -90.79123 | 28065 ft | 272 kts | 206° |
| 2026-05-07 20:14 | 31.61413 | -90.79631 | 28065 ft | 272 kts | 206° |
| 2026-05-07 20:14 | 31.59571 | -90.80136 | 28065 ft | 272 kts | 206° |
| 2026-05-07 20:14 | 31.57727 | -90.80644 | 28064 ft | 272 kts | 206° |
| 2026-05-07 20:15 | 31.55880 | -90.81150 | 28063 ft | 272 kts | 206° |
| 2026-05-07 20:15 | 31.54038 | -90.81655 | 28062 ft | 272 kts | 206° |
| 2026-05-07 20:15 | 31.52195 | -90.82162 | 28063 ft | 272 kts | 206° |
| 2026-05-07 20:15 | 31.50357 | -90.82665 | 28060 ft | 272 kts | 206° |
| 2026-05-07 20:16 | 31.48514 | -90.83171 | 28064 ft | 272 kts | 206° |
| 2026-05-07 20:16 | 31.46671 | -90.83676 | 28061 ft | 272 kts | 206° |
| 2026-05-07 20:16 | 31.44837 | -90.84178 | 28058 ft | 272 kts | 206° |
| 2026-05-07 20:16 | 31.42994 | -90.84683 | 28058 ft | 272 kts | 206° |
| 2026-05-07 20:17 | 31.41157 | -90.85185 | 28059 ft | 272 kts | 206° |
| 2026-05-07 20:17 | 31.39315 | -90.85690 | 28054 ft | 272 kts | 206° |
| 2026-05-07 20:17 | 31.37476 | -90.86192 | 28056 ft | 272 kts | 206° |
| 2026-05-07 20:17 | 31.35614 | -90.86705 | 27727 ft | 281 kts | 206° |
| 2026-05-07 20:18 | 31.33677 | -90.87235 | 27278 ft | 289 kts | 205° |
| 2026-05-07 20:18 | 31.31707 | -90.87762 | 26918 ft | 292 kts | 205° |
| 2026-05-07 20:18 | 31.29730 | -90.88310 | 26614 ft | 292 kts | 205° |
| 2026-05-07 20:18 | 31.27746 | -90.88849 | 26302 ft | 293 kts | 205° |
| 2026-05-07 20:19 | 31.25762 | -90.89388 | 25980 ft | 293 kts | 205° |
| 2026-05-07 20:19 | 31.24442 | -90.89752 | 25772 ft | 294 kts | 205° |
| 2026-05-07 20:19 | 31.21796 | -90.90472 | 25289 ft | 296 kts | 204° |
| 2026-05-07 20:19 | 31.20446 | -90.90838 | 25060 ft | 297 kts | 204° |
| 2026-05-07 20:20 | 31.18426 | -90.91389 | 24731 ft | 297 kts | 204° |
| 2026-05-07 20:20 | 31.15753 | -90.92118 | 24202 ft | 300 kts | 204° |
| 2026-05-07 20:20 | 31.13714 | -90.92671 | 23816 ft | 301 kts | 204° |
| 2026-05-07 20:20 | 31.11677 | -90.93225 | 23357 ft | 302 kts | 204° |
| 2026-05-07 20:21 | 31.10298 | -90.93602 | 23031 ft | 303 kts | 203° |
| 2026-05-07 20:21 | 31.07582 | -90.94336 | 22407 ft | 303 kts | 203° |
| 2026-05-07 20:21 | 31.06196 | -90.94715 | 22110 ft | 302 kts | 203° |
| 2026-05-07 20:21 | 31.04136 | -90.95276 | 21561 ft | 304 kts | 202° |
| 2026-05-07 20:22 | 31.02083 | -90.95828 | 21119 ft | 302 kts | 202° |
| 2026-05-07 20:22 | 31.00041 | -90.96385 | 20711 ft | 300 kts | 202° |
| 2026-05-07 20:22 | 30.98013 | -90.96936 | 20322 ft | 298 kts | 202° |
| 2026-05-07 20:22 | 30.96000 | -90.97479 | 19955 ft | 296 kts | 202° |
| 2026-05-07 20:23 | 30.94003 | -90.98021 | 19620 ft | 294 kts | 202° |
| 2026-05-07 20:23 | 30.92042 | -90.98553 | 19272 ft | 292 kts | 202° |
| 2026-05-07 20:23 | 30.90065 | -90.99087 | 18909 ft | 291 kts | 202° |
| 2026-05-07 20:23 | 30.88102 | -90.99618 | 18571 ft | 288 kts | 201° |
| 2026-05-07 20:24 | 30.86130 | -91.00153 | 18280 ft | 287 kts | 201° |
| 2026-05-07 20:24 | 30.84210 | -91.00670 | 17928 ft | 287 kts | 201° |
| 2026-05-07 20:24 | 30.82271 | -91.01199 | 17582 ft | 286 kts | 201° |
| 2026-05-07 20:24 | 30.80319 | -91.01675 | 17239 ft | 290 kts | 195° |
| 2026-05-07 20:25 | 30.78253 | -91.01399 | 16881 ft | 312 kts | 170° |
| 2026-05-07 20:25 | 30.76343 | -91.00143 | 16354 ft | 315 kts | 149° |
| 2026-05-07 20:25 | 30.74888 | -90.98113 | 15201 ft | 337 kts | 124° |
| 2026-05-07 20:25 | 30.74126 | -90.95537 | 14299 ft | 340 kts | 101° |
| 2026-05-07 20:26 | 30.74183 | -90.92811 | 13416 ft | 335 kts | 77° |
| 2026-05-07 20:26 | 30.75039 | -90.90350 | 12527 ft | 324 kts | 54° |
| 2026-05-07 20:26 | 30.76406 | -90.88333 | 11654 ft | 315 kts | 45° |
| 2026-05-07 20:26 | 30.77841 | -90.86465 | 10981 ft | 304 kts | 44° |
| 2026-05-07 20:27 | 30.79250 | -90.84701 | 10418 ft | 292 kts | 43° |
| 2026-05-07 20:27 | 30.80752 | -90.83212 | 9882 ft | 275 kts | 24° |
| 2026-05-07 20:27 | 30.82528 | -90.82610 | 9115 ft | 262 kts | 357° |
| 2026-05-07 20:27 | 30.84246 | -90.83013 | 8417 ft | 247 kts | 329° |
| 2026-05-07 20:28 | 30.85517 | -90.84263 | 7730 ft | 237 kts | 307° |
| 2026-05-07 20:28 | 30.86570 | -90.85733 | 7056 ft | 236 kts | 307° |
| 2026-05-07 20:28 | 30.87611 | -90.87196 | 6397 ft | 235 kts | 307° |
| 2026-05-07 20:28 | 30.88594 | -90.88704 | 5678 ft | 232 kts | 296° |
| 2026-05-07 20:29 | 30.88907 | -90.90497 | 5004 ft | 229 kts | 265° |
| 2026-05-07 20:29 | 30.88341 | -90.92228 | 4274 ft | 233 kts | 234° |
| 2026-05-07 20:29 | 30.87093 | -90.93450 | 3501 ft | 240 kts | 213° |
| 2026-05-07 20:29 | 30.85652 | -90.94451 | 2790 ft | 242 kts | 210° |
| 2026-05-07 20:30 | 30.84210 | -90.95394 | 2373 ft | 230 kts | 208° |
| 2026-05-07 20:30 | 30.82808 | -90.96114 | 2181 ft | 210 kts | 201° |
| 2026-05-07 20:30 | 30.81498 | -90.96684 | 2090 ft | 193 kts | 200° |
| 2026-05-07 20:30 | 30.80284 | -90.97175 | 2043 ft | 177 kts | 199° |
| 2026-05-07 20:31 | 30.79127 | -90.97630 | 2019 ft | 184 kts | 198° |
| 2026-05-07 20:31 | 30.77800 | -90.98144 | 2012 ft | 217 kts | 198° |
| 2026-05-07 20:31 | 30.76278 | -90.98737 | 2008 ft | 242 kts | 198° |
| 2026-05-07 20:31 | 30.74625 | -90.99389 | 2003 ft | 257 kts | 199° |
| 2026-05-07 20:32 | 30.72914 | -91.00062 | 2003 ft | 262 kts | 199° |
| 2026-05-07 20:32 | 30.71182 | -91.00747 | 2002 ft | 262 kts | 199° |
| 2026-05-07 20:32 | 30.69469 | -91.01423 | 2001 ft | 258 kts | 199° |
| 2026-05-07 20:32 | 30.67778 | -91.02099 | 1999 ft | 255 kts | 201° |
| 2026-05-07 20:33 | 30.66189 | -91.03001 | 2001 ft | 254 kts | 209° |
| 2026-05-07 20:33 | 30.64689 | -91.04018 | 1994 ft | 253 kts | 212° |
| 2026-05-07 20:33 | 30.63194 | -91.05108 | 2000 ft | 253 kts | 213° |
| 2026-05-07 20:33 | 30.61742 | -91.06218 | 1998 ft | 240 kts | 214° |
| 2026-05-07 20:34 | 30.60424 | -91.07269 | 1799 ft | 225 kts | 216° |
| 2026-05-07 20:34 | 30.59179 | -91.08308 | 1503 ft | 216 kts | 219° |
| 2026-05-07 20:34 | 30.58090 | -91.09465 | 1245 ft | 207 kts | 227° |
| 2026-05-07 20:34 | 30.57106 | -91.10637 | 964 ft | 199 kts | 229° |
| 2026-05-07 20:35 | 30.56247 | -91.11625 | 695 ft | 153 kts | 226° |
| 2026-05-07 20:35 | 30.55535 | -91.12389 | 530 ft | 129 kts | 225° |
| 2026-05-07 20:35 | 30.54911 | -91.13050 | 389 ft | 114 kts | 226° |
| 2026-05-07 20:35 | 30.54350 | -91.13659 | 244 ft | 107 kts | 226° |
| 2026-05-07 20:36 | 30.53834 | -91.14236 | 93 ft | 99 kts | 222° |
| 2026-05-07 20:36 | 30.53394 | -91.14714 | 74 ft | 67 kts | 223° |
| 2026-05-07 20:36 | 30.53280 | -91.14828 | 73 ft | 1 kts | 195° |
| 2026-05-07 20:36 | 30.53112 | -91.14717 | 75 ft | 26 kts | 162° |
| 2026-05-07 20:37 | 30.53076 | -91.14684 | 74 ft | 0 kts | 101° |
| 2026-05-07 20:37 | 30.53117 | -91.14626 | 71 ft | 22 kts | 42° |
| 2026-05-07 20:37 | 30.53081 | -91.14546 | 65 ft | 9 kts | 191° |
| 2026-05-07 20:37 | 30.53076 | -91.14548 | 70 ft | 0 kts | 206° |